sensor_id;sensor_type;location;lat;lon;timestamp;P1;durP1;ratioP1;P2;durP2;ratioP2
45342;SDS011;31077;50.872;4.352;2023-02-02T00:01:50;9.35;;;2.95;;
45342;SDS011;31077;50.872;4.352;2023-02-02T00:04:25;10.95;;;3.30;;
45342;SDS011;31077;50.872;4.352;2023-02-02T00:06:53;6.75;;;2.65;;
45342;SDS011;31077;50.872;4.352;2023-02-02T00:09:21;7.03;;;2.60;;
45342;SDS011;31077;50.872;4.352;2023-02-02T00:11:48;6.18;;;2.58;;
45342;SDS011;31077;50.872;4.352;2023-02-02T00:14:15;5.90;;;1.95;;
45342;SDS011;31077;50.872;4.352;2023-02-02T00:16:48;5.57;;;2.47;;
45342;SDS011;31077;50.872;4.352;2023-02-02T00:19:16;5.60;;;2.05;;
45342;SDS011;31077;50.872;4.352;2023-02-02T00:21:46;6.55;;;2.67;;
45342;SDS011;31077;50.872;4.352;2023-02-02T00:24:13;5.35;;;2.10;;
45342;SDS011;31077;50.872;4.352;2023-02-02T00:26:42;5.50;;;2.47;;
45342;SDS011;31077;50.872;4.352;2023-02-02T00:29:12;5.70;;;2.10;;
45342;SDS011;31077;50.872;4.352;2023-02-02T00:31:41;7.07;;;2.10;;
45342;SDS011;31077;50.872;4.352;2023-02-02T00:34:09;6.80;;;2.30;;
45342;SDS011;31077;50.872;4.352;2023-02-02T00:36:38;9.25;;;2.78;;
45342;SDS011;31077;50.872;4.352;2023-02-02T00:39:05;7.80;;;2.28;;
45342;SDS011;31077;50.872;4.352;2023-02-02T00:41:31;7.93;;;2.78;;
45342;SDS011;31077;50.872;4.352;2023-02-02T00:43:57;7.18;;;2.00;;
45342;SDS011;31077;50.872;4.352;2023-02-02T00:46:41;6.85;;;2.20;;
45342;SDS011;31077;50.872;4.352;2023-02-02T00:49:07;8.38;;;2.75;;
45342;SDS011;31077;50.872;4.352;2023-02-02T00:51:33;7.60;;;2.28;;
45342;SDS011;31077;50.872;4.352;2023-02-02T00:54:00;5.90;;;2.42;;
45342;SDS011;31077;50.872;4.352;2023-02-02T00:56:25;5.80;;;2.03;;
45342;SDS011;31077;50.872;4.352;2023-02-02T00:58:51;8.48;;;2.30;;
45342;SDS011;31077;50.872;4.352;2023-02-02T01:01:17;5.97;;;2.45;;
45342;SDS011;31077;50.872;4.352;2023-02-02T01:03:45;7.03;;;2.67;;
45342;SDS011;31077;50.872;4.352;2023-02-02T01:06:12;5.70;;;1.80;;
45342;SDS011;31077;50.872;4.352;2023-02-02T01:08:38;7.18;;;2.50;;
45342;SDS011;31077;50.872;4.352;2023-02-02T01:11:04;5.82;;;2.20;;
45342;SDS011;31077;50.872;4.352;2023-02-02T01:13:30;9.32;;;3.08;;
45342;SDS011;31077;50.872;4.352;2023-02-02T01:15:57;6.13;;;3.13;;
45342;SDS011;31077;50.872;4.352;2023-02-02T01:18:24;5.95;;;2.00;;
45342;SDS011;31077;50.872;4.352;2023-02-02T01:21:23;6.65;;;2.40;;
45342;SDS011;31077;50.872;4.352;2023-02-02T01:23:42;8.88;;;2.97;;
45342;SDS011;31077;50.872;4.352;2023-02-02T01:26:08;6.90;;;2.60;;
45342;SDS011;31077;50.872;4.352;2023-02-02T01:28:36;5.68;;;2.15;;
45342;SDS011;31077;50.872;4.352;2023-02-02T01:31:09;7.22;;;2.53;;
45342;SDS011;31077;50.872;4.352;2023-02-02T01:33:36;4.70;;;2.03;;
45342;SDS011;31077;50.872;4.352;2023-02-02T01:36:04;6.70;;;2.63;;
45342;SDS011;31077;50.872;4.352;2023-02-02T01:38:32;8.57;;;2.78;;
45342;SDS011;31077;50.872;4.352;2023-02-02T01:40:58;5.75;;;2.53;;
45342;SDS011;31077;50.872;4.352;2023-02-02T01:45:54;6.35;;;2.22;;
45342;SDS011;31077;50.872;4.352;2023-02-02T01:48:22;8.23;;;2.70;;
45342;SDS011;31077;50.872;4.352;2023-02-02T01:50:52;6.07;;;2.00;;
45342;SDS011;31077;50.872;4.352;2023-02-02T01:53:20;6.43;;;2.22;;
45342;SDS011;31077;50.872;4.352;2023-02-02T01:55:47;6.32;;;2.10;;
45342;SDS011;31077;50.872;4.352;2023-02-02T01:58:17;7.45;;;2.40;;
45342;SDS011;31077;50.872;4.352;2023-02-02T02:00:47;7.18;;;2.35;;
45342;SDS011;31077;50.872;4.352;2023-02-02T02:03:14;6.93;;;2.65;;
45342;SDS011;31077;50.872;4.352;2023-02-02T02:05:50;5.63;;;1.92;;
45342;SDS011;31077;50.872;4.352;2023-02-02T02:08:27;8.27;;;3.08;;
45342;SDS011;31077;50.872;4.352;2023-02-02T02:11:05;7.13;;;2.35;;
45342;SDS011;31077;50.872;4.352;2023-02-02T02:13:31;4.63;;;2.05;;
45342;SDS011;31077;50.872;4.352;2023-02-02T02:21:27;4.68;;;1.90;;
45342;SDS011;31077;50.872;4.352;2023-02-02T02:24:44;5.32;;;2.40;;
45342;SDS011;31077;50.872;4.352;2023-02-02T02:30:32;7.35;;;2.28;;
45342;SDS011;31077;50.872;4.352;2023-02-02T02:36:16;5.45;;;2.20;;
45342;SDS011;31077;50.872;4.352;2023-02-02T02:41:32;6.15;;;2.38;;
45342;SDS011;31077;50.872;4.352;2023-02-02T02:44:05;6.55;;;2.20;;
45342;SDS011;31077;50.872;4.352;2023-02-02T02:46:35;5.90;;;2.00;;
45342;SDS011;31077;50.872;4.352;2023-02-02T02:49:02;6.63;;;2.40;;
45342;SDS011;31077;50.872;4.352;2023-02-02T02:51:44;5.20;;;1.95;;
45342;SDS011;31077;50.872;4.352;2023-02-02T02:59:45;5.22;;;2.17;;
45342;SDS011;31077;50.872;4.352;2023-02-02T03:02:34;5.75;;;1.95;;
45342;SDS011;31077;50.872;4.352;2023-02-02T03:07:40;4.90;;;1.83;;
45342;SDS011;31077;50.872;4.352;2023-02-02T03:10:10;8.02;;;3.05;;
45342;SDS011;31077;50.872;4.352;2023-02-02T03:12:45;5.80;;;2.20;;
45342;SDS011;31077;50.872;4.352;2023-02-02T03:15:12;5.95;;;2.00;;
45342;SDS011;31077;50.872;4.352;2023-02-02T03:17:40;7.38;;;2.33;;
45342;SDS011;31077;50.872;4.352;2023-02-02T03:20:07;5.05;;;1.90;;
45342;SDS011;31077;50.872;4.352;2023-02-02T03:22:33;6.65;;;2.42;;
45342;SDS011;31077;50.872;4.352;2023-02-02T03:24:59;10.18;;;2.20;;
45342;SDS011;31077;50.872;4.352;2023-02-02T03:27:25;5.43;;;2.10;;
45342;SDS011;31077;50.872;4.352;2023-02-02T03:29:51;8.48;;;2.10;;
45342;SDS011;31077;50.872;4.352;2023-02-02T03:32:18;5.68;;;2.28;;
45342;SDS011;31077;50.872;4.352;2023-02-02T03:34:45;6.43;;;2.15;;
45342;SDS011;31077;50.872;4.352;2023-02-02T03:37:11;5.53;;;2.20;;
45342;SDS011;31077;50.872;4.352;2023-02-02T03:39:36;5.90;;;2.22;;
45342;SDS011;31077;50.872;4.352;2023-02-02T03:42:02;5.40;;;1.92;;
45342;SDS011;31077;50.872;4.352;2023-02-02T03:44:28;5.68;;;1.95;;
45342;SDS011;31077;50.872;4.352;2023-02-02T03:46:59;5.68;;;2.80;;
45342;SDS011;31077;50.872;4.352;2023-02-02T03:49:25;4.32;;;1.75;;
45342;SDS011;31077;50.872;4.352;2023-02-02T03:51:50;6.82;;;2.15;;
45342;SDS011;31077;50.872;4.352;2023-02-02T03:54:16;6.03;;;1.75;;
45342;SDS011;31077;50.872;4.352;2023-02-02T03:56:42;6.32;;;2.03;;
45342;SDS011;31077;50.872;4.352;2023-02-02T03:59:08;8.20;;;2.47;;
45342;SDS011;31077;50.872;4.352;2023-02-02T04:01:33;6.63;;;2.13;;
45342;SDS011;31077;50.872;4.352;2023-02-02T04:03:59;5.93;;;2.22;;
45342;SDS011;31077;50.872;4.352;2023-02-02T04:06:25;6.32;;;2.08;;
45342;SDS011;31077;50.872;4.352;2023-02-02T04:08:51;6.68;;;2.20;;
45342;SDS011;31077;50.872;4.352;2023-02-02T04:11:17;5.35;;;1.73;;
45342;SDS011;31077;50.872;4.352;2023-02-02T04:13:43;5.32;;;2.17;;
45342;SDS011;31077;50.872;4.352;2023-02-02T04:16:09;7.72;;;2.30;;
45342;SDS011;31077;50.872;4.352;2023-02-02T04:18:35;5.18;;;1.58;;
45342;SDS011;31077;50.872;4.352;2023-02-02T04:21:04;6.13;;;2.65;;
45342;SDS011;31077;50.872;4.352;2023-02-02T04:23:31;5.78;;;1.98;;
45342;SDS011;31077;50.872;4.352;2023-02-02T04:25:57;7.38;;;1.90;;
45342;SDS011;31077;50.872;4.352;2023-02-02T04:28:23;6.25;;;2.25;;
45342;SDS011;31077;50.872;4.352;2023-02-02T04:30:50;4.72;;;1.75;;
45342;SDS011;31077;50.872;4.352;2023-02-02T04:33:17;4.95;;;2.08;;
45342;SDS011;31077;50.872;4.352;2023-02-02T04:35:43;6.82;;;2.25;;
45342;SDS011;31077;50.872;4.352;2023-02-02T04:38:09;6.00;;;2.30;;
45342;SDS011;31077;50.872;4.352;2023-02-02T04:40:39;7.30;;;2.25;;
45342;SDS011;31077;50.872;4.352;2023-02-02T04:43:06;4.53;;;1.63;;
45342;SDS011;31077;50.872;4.352;2023-02-02T04:45:32;4.18;;;1.45;;
45342;SDS011;31077;50.872;4.352;2023-02-02T04:47:58;5.38;;;1.95;;
45342;SDS011;31077;50.872;4.352;2023-02-02T04:50:24;6.00;;;2.10;;
45342;SDS011;31077;50.872;4.352;2023-02-02T04:52:49;5.25;;;1.75;;
45342;SDS011;31077;50.872;4.352;2023-02-02T04:55:15;6.25;;;2.03;;
45342;SDS011;31077;50.872;4.352;2023-02-02T04:57:41;4.32;;;1.83;;
45342;SDS011;31077;50.872;4.352;2023-02-02T05:00:07;6.47;;;1.92;;
45342;SDS011;31077;50.872;4.352;2023-02-02T05:02:35;6.72;;;2.00;;
45342;SDS011;31077;50.872;4.352;2023-02-02T05:05:05;5.57;;;2.30;;
45342;SDS011;31077;50.872;4.352;2023-02-02T05:07:33;7.57;;;2.28;;
45342;SDS011;31077;50.872;4.352;2023-02-02T05:09:59;5.43;;;2.00;;
45342;SDS011;31077;50.872;4.352;2023-02-02T05:12:25;5.82;;;2.05;;
45342;SDS011;31077;50.872;4.352;2023-02-02T05:14:50;6.80;;;2.20;;
45342;SDS011;31077;50.872;4.352;2023-02-02T05:17:16;6.95;;;1.83;;
45342;SDS011;31077;50.872;4.352;2023-02-02T05:19:42;5.90;;;2.33;;
45342;SDS011;31077;50.872;4.352;2023-02-02T05:22:07;5.05;;;1.63;;
45342;SDS011;31077;50.872;4.352;2023-02-02T05:24:33;5.50;;;1.92;;
45342;SDS011;31077;50.872;4.352;2023-02-02T05:26:59;5.43;;;1.90;;
45342;SDS011;31077;50.872;4.352;2023-02-02T05:29:25;6.13;;;1.98;;
45342;SDS011;31077;50.872;4.352;2023-02-02T05:31:52;6.45;;;2.70;;
45342;SDS011;31077;50.872;4.352;2023-02-02T05:34:18;8.57;;;2.55;;
45342;SDS011;31077;50.872;4.352;2023-02-02T05:36:44;8.30;;;2.38;;
45342;SDS011;31077;50.872;4.352;2023-02-02T05:39:10;4.85;;;2.05;;
45342;SDS011;31077;50.872;4.352;2023-02-02T05:41:36;5.00;;;1.55;;
45342;SDS011;31077;50.872;4.352;2023-02-02T05:44:01;5.80;;;1.92;;
45342;SDS011;31077;50.872;4.352;2023-02-02T05:46:28;5.28;;;2.30;;
45342;SDS011;31077;50.872;4.352;2023-02-02T05:48:54;5.85;;;2.10;;
45342;SDS011;31077;50.872;4.352;2023-02-02T05:51:22;3.53;;;1.30;;
45342;SDS011;31077;50.872;4.352;2023-02-02T05:53:53;4.13;;;1.77;;
45342;SDS011;31077;50.872;4.352;2023-02-02T05:56:19;4.72;;;2.28;;
45342;SDS011;31077;50.872;4.352;2023-02-02T05:58:45;6.13;;;2.83;;
45342;SDS011;31077;50.872;4.352;2023-02-02T06:01:13;6.00;;;1.88;;
45342;SDS011;31077;50.872;4.352;2023-02-02T06:03:41;4.90;;;1.73;;
45342;SDS011;31077;50.872;4.352;2023-02-02T06:06:06;4.13;;;1.98;;
45342;SDS011;31077;50.872;4.352;2023-02-02T06:08:32;6.13;;;2.10;;
45342;SDS011;31077;50.872;4.352;2023-02-02T06:10:58;5.28;;;2.10;;
45342;SDS011;31077;50.872;4.352;2023-02-02T06:13:24;7.38;;;2.58;;
45342;SDS011;31077;50.872;4.352;2023-02-02T06:15:50;4.47;;;1.90;;
45342;SDS011;31077;50.872;4.352;2023-02-02T06:18:15;5.18;;;1.83;;
45342;SDS011;31077;50.872;4.352;2023-02-02T06:20:41;4.80;;;2.22;;
45342;SDS011;31077;50.872;4.352;2023-02-02T06:23:07;7.05;;;2.30;;
45342;SDS011;31077;50.872;4.352;2023-02-02T06:25:32;5.00;;;2.20;;
45342;SDS011;31077;50.872;4.352;2023-02-02T06:27:58;6.90;;;2.13;;
45342;SDS011;31077;50.872;4.352;2023-02-02T06:30:25;6.70;;;2.25;;
45342;SDS011;31077;50.872;4.352;2023-02-02T06:32:51;5.85;;;2.47;;
45342;SDS011;31077;50.872;4.352;2023-02-02T06:35:17;8.32;;;2.42;;
45342;SDS011;31077;50.872;4.352;2023-02-02T06:37:43;7.90;;;2.60;;
45342;SDS011;31077;50.872;4.352;2023-02-02T06:40:09;6.75;;;3.10;;
45342;SDS011;31077;50.872;4.352;2023-02-02T06:42:36;5.63;;;1.88;;
45342;SDS011;31077;50.872;4.352;2023-02-02T06:45:02;5.65;;;2.33;;
45342;SDS011;31077;50.872;4.352;2023-02-02T06:47:30;4.75;;;1.92;;
45342;SDS011;31077;50.872;4.352;2023-02-02T06:49:56;5.00;;;1.70;;
45342;SDS011;31077;50.872;4.352;2023-02-02T06:52:22;5.82;;;2.45;;
45342;SDS011;31077;50.872;4.352;2023-02-02T06:54:48;5.22;;;1.67;;
45342;SDS011;31077;50.872;4.352;2023-02-02T06:57:14;4.05;;;1.63;;
45342;SDS011;31077;50.872;4.352;2023-02-02T06:59:40;5.63;;;1.95;;
45342;SDS011;31077;50.872;4.352;2023-02-02T07:02:08;6.63;;;2.08;;
45342;SDS011;31077;50.872;4.352;2023-02-02T07:04:37;7.30;;;1.98;;
45342;SDS011;31077;50.872;4.352;2023-02-02T07:07:03;2.80;;;1.55;;
45342;SDS011;31077;50.872;4.352;2023-02-02T07:09:32;5.10;;;1.80;;
45342;SDS011;31077;50.872;4.352;2023-02-02T07:11:58;5.55;;;1.73;;
45342;SDS011;31077;50.872;4.352;2023-02-02T07:14:24;3.80;;;1.88;;
45342;SDS011;31077;50.872;4.352;2023-02-02T07:16:51;3.03;;;1.40;;
45342;SDS011;31077;50.872;4.352;2023-02-02T07:19:16;5.63;;;1.98;;
45342;SDS011;31077;50.872;4.352;2023-02-02T07:21:42;5.30;;;1.85;;
45342;SDS011;31077;50.872;4.352;2023-02-02T07:24:08;4.15;;;1.70;;
45342;SDS011;31077;50.872;4.352;2023-02-02T07:26:34;4.50;;;1.80;;
45342;SDS011;31077;50.872;4.352;2023-02-02T07:29:00;4.53;;;1.67;;
45342;SDS011;31077;50.872;4.352;2023-02-02T07:31:28;4.93;;;2.08;;
45342;SDS011;31077;50.872;4.352;2023-02-02T07:33:54;6.53;;;2.25;;
45342;SDS011;31077;50.872;4.352;2023-02-02T07:36:21;5.05;;;2.08;;
45342;SDS011;31077;50.872;4.352;2023-02-02T07:38:48;4.22;;;1.80;;
45342;SDS011;31077;50.872;4.352;2023-02-02T07:41:15;5.00;;;1.73;;
45342;SDS011;31077;50.872;4.352;2023-02-02T07:43:41;3.97;;;1.65;;
45342;SDS011;31077;50.872;4.352;2023-02-02T07:46:10;5.50;;;1.73;;
45342;SDS011;31077;50.872;4.352;2023-02-02T07:48:38;6.07;;;1.77;;
45342;SDS011;31077;50.872;4.352;2023-02-02T07:51:05;5.80;;;1.88;;
45342;SDS011;31077;50.872;4.352;2023-02-02T07:53:33;4.57;;;1.60;;
45342;SDS011;31077;50.872;4.352;2023-02-02T07:56:09;4.78;;;1.52;;
45342;SDS011;31077;50.872;4.352;2023-02-02T07:58:35;6.32;;;2.10;;
45342;SDS011;31077;50.872;4.352;2023-02-02T08:01:02;8.02;;;2.10;;
45342;SDS011;31077;50.872;4.352;2023-02-02T08:03:28;7.25;;;1.92;;
45342;SDS011;31077;50.872;4.352;2023-02-02T08:05:54;4.90;;;1.70;;
45342;SDS011;31077;50.872;4.352;2023-02-02T08:08:21;6.85;;;1.60;;
45342;SDS011;31077;50.872;4.352;2023-02-02T08:10:47;7.65;;;2.00;;
45342;SDS011;31077;50.872;4.352;2023-02-02T08:13:14;10.38;;;2.53;;
45342;SDS011;31077;50.872;4.352;2023-02-02T08:15:39;7.10;;;2.15;;
45342;SDS011;31077;50.872;4.352;2023-02-02T08:18:05;6.25;;;1.90;;
45342;SDS011;31077;50.872;4.352;2023-02-02T08:20:31;5.45;;;1.52;;
45342;SDS011;31077;50.872;4.352;2023-02-02T08:22:56;4.65;;;1.77;;
45342;SDS011;31077;50.872;4.352;2023-02-02T08:25:22;3.63;;;1.67;;
45342;SDS011;31077;50.872;4.352;2023-02-02T08:27:52;5.22;;;1.98;;
45342;SDS011;31077;50.872;4.352;2023-02-02T08:30:18;11.25;;;2.33;;
45342;SDS011;31077;50.872;4.352;2023-02-02T08:32:44;4.47;;;1.77;;
45342;SDS011;31077;50.872;4.352;2023-02-02T08:35:11;6.65;;;1.83;;
45342;SDS011;31077;50.872;4.352;2023-02-02T08:37:37;5.55;;;1.75;;
45342;SDS011;31077;50.872;4.352;2023-02-02T08:40:02;4.18;;;1.70;;
45342;SDS011;31077;50.872;4.352;2023-02-02T08:42:28;3.78;;;1.27;;
45342;SDS011;31077;50.872;4.352;2023-02-02T08:44:54;5.28;;;1.70;;
45342;SDS011;31077;50.872;4.352;2023-02-02T08:47:20;3.88;;;1.50;;
45342;SDS011;31077;50.872;4.352;2023-02-02T08:49:45;3.38;;;1.65;;
45342;SDS011;31077;50.872;4.352;2023-02-02T08:52:11;5.00;;;1.77;;
45342;SDS011;31077;50.872;4.352;2023-02-02T08:54:37;4.30;;;1.88;;
45342;SDS011;31077;50.872;4.352;2023-02-02T08:57:04;6.72;;;1.77;;
45342;SDS011;31077;50.872;4.352;2023-02-02T08:59:29;3.15;;;1.38;;
45342;SDS011;31077;50.872;4.352;2023-02-02T09:01:55;4.65;;;1.52;;
45342;SDS011;31077;50.872;4.352;2023-02-02T09:04:21;4.53;;;1.80;;
45342;SDS011;31077;50.872;4.352;2023-02-02T09:06:46;5.40;;;1.67;;
45342;SDS011;31077;50.872;4.352;2023-02-02T09:09:14;4.07;;;1.52;;
45342;SDS011;31077;50.872;4.352;2023-02-02T09:11:40;4.78;;;1.92;;
45342;SDS011;31077;50.872;4.352;2023-02-02T09:14:06;6.22;;;2.20;;
45342;SDS011;31077;50.872;4.352;2023-02-02T09:16:34;5.95;;;1.52;;
45342;SDS011;31077;50.872;4.352;2023-02-02T09:19:00;6.57;;;2.03;;
45342;SDS011;31077;50.872;4.352;2023-02-02T09:21:26;3.45;;;1.50;;
45342;SDS011;31077;50.872;4.352;2023-02-02T09:23:52;2.53;;;1.48;;
45342;SDS011;31077;50.872;4.352;2023-02-02T09:26:22;4.60;;;1.98;;
45342;SDS011;31077;50.872;4.352;2023-02-02T09:28:58;6.53;;;1.85;;
45342;SDS011;31077;50.872;4.352;2023-02-02T09:31:27;6.05;;;1.65;;
45342;SDS011;31077;50.872;4.352;2023-02-02T09:33:54;4.35;;;1.77;;
45342;SDS011;31077;50.872;4.352;2023-02-02T09:36:20;3.78;;;1.60;;
45342;SDS011;31077;50.872;4.352;2023-02-02T09:38:48;5.35;;;1.73;;
45342;SDS011;31077;50.872;4.352;2023-02-02T09:41:31;3.72;;;1.45;;
45342;SDS011;31077;50.872;4.352;2023-02-02T09:52:22;6.45;;;1.92;;
45342;SDS011;31077;50.872;4.352;2023-02-02T09:55:05;4.35;;;1.63;;
45342;SDS011;31077;50.872;4.352;2023-02-02T09:58:02;3.42;;;1.50;;
45342;SDS011;31077;50.872;4.352;2023-02-02T10:03:27;5.53;;;1.85;;
45342;SDS011;31077;50.872;4.352;2023-02-02T10:06:25;4.35;;;1.58;;
45342;SDS011;31077;50.872;4.352;2023-02-02T10:09:09;5.80;;;1.50;;
45342;SDS011;31077;50.872;4.352;2023-02-02T10:11:44;3.85;;;1.48;;
45342;SDS011;31077;50.872;4.352;2023-02-02T10:20:59;2.47;;;1.30;;
45342;SDS011;31077;50.872;4.352;2023-02-02T10:23:35;2.92;;;1.45;;
45342;SDS011;31077;50.872;4.352;2023-02-02T10:34:22;3.10;;;1.38;;
45342;SDS011;31077;50.872;4.352;2023-02-02T10:37:15;3.97;;;1.60;;
45342;SDS011;31077;50.872;4.352;2023-02-02T10:45:42;26.20;;;2.63;;
45342;SDS011;31077;50.872;4.352;2023-02-02T10:48:13;4.38;;;1.50;;
45342;SDS011;31077;50.872;4.352;2023-02-02T10:50:41;9.77;;;1.70;;
45342;SDS011;31077;50.872;4.352;2023-02-02T10:53:12;3.78;;;1.58;;
45342;SDS011;31077;50.872;4.352;2023-02-02T10:55:39;3.63;;;1.52;;
45342;SDS011;31077;50.872;4.352;2023-02-02T10:58:19;5.07;;;1.20;;
45342;SDS011;31077;50.872;4.352;2023-02-02T11:00:54;5.40;;;1.40;;
45342;SDS011;31077;50.872;4.352;2023-02-02T11:03:23;4.15;;;1.60;;
45342;SDS011;31077;50.872;4.352;2023-02-02T11:05:55;2.47;;;1.40;;
45342;SDS011;31077;50.872;4.352;2023-02-02T11:08:42;5.50;;;1.88;;
45342;SDS011;31077;50.872;4.352;2023-02-02T11:11:18;3.50;;;1.50;;
45342;SDS011;31077;50.872;4.352;2023-02-02T11:13:52;5.32;;;2.08;;
45342;SDS011;31077;50.872;4.352;2023-02-02T11:16:26;4.47;;;1.67;;
45342;SDS011;31077;50.872;4.352;2023-02-02T11:18:53;4.22;;;1.60;;
45342;SDS011;31077;50.872;4.352;2023-02-02T11:21:30;5.95;;;1.77;;
45342;SDS011;31077;50.872;4.352;2023-02-02T11:26:46;4.07;;;1.95;;
45342;SDS011;31077;50.872;4.352;2023-02-02T11:29:19;5.95;;;1.95;;
45342;SDS011;31077;50.872;4.352;2023-02-02T11:37:35;5.93;;;1.40;;
45342;SDS011;31077;50.872;4.352;2023-02-02T11:40:17;4.22;;;1.67;;
45342;SDS011;31077;50.872;4.352;2023-02-02T11:43:05;3.70;;;1.55;;
45342;SDS011;31077;50.872;4.352;2023-02-02T11:45:41;5.82;;;2.03;;
45342;SDS011;31077;50.872;4.352;2023-02-02T11:48:16;9.93;;;1.65;;
45342;SDS011;31077;50.872;4.352;2023-02-02T11:50:54;4.43;;;1.45;;
45342;SDS011;31077;50.872;4.352;2023-02-02T11:53:22;4.20;;;1.42;;
45342;SDS011;31077;50.872;4.352;2023-02-02T11:55:51;4.45;;;1.30;;
45342;SDS011;31077;50.872;4.352;2023-02-02T11:58:19;5.60;;;1.65;;
45342;SDS011;31077;50.872;4.352;2023-02-02T12:00:52;3.42;;;1.65;;
45342;SDS011;31077;50.872;4.352;2023-02-02T12:03:28;7.10;;;1.90;;
45342;SDS011;31077;50.872;4.352;2023-02-02T12:05:55;5.70;;;1.63;;
45342;SDS011;31077;50.872;4.352;2023-02-02T12:08:23;4.85;;;1.58;;
45342;SDS011;31077;50.872;4.352;2023-02-02T12:13:24;6.13;;;1.92;;
45342;SDS011;31077;50.872;4.352;2023-02-02T12:16:21;12.82;;;2.40;;
45342;SDS011;31077;50.872;4.352;2023-02-02T12:22:11;4.20;;;1.55;;
45342;SDS011;31077;50.872;4.352;2023-02-02T12:24:36;9.35;;;1.98;;
45342;SDS011;31077;50.872;4.352;2023-02-02T12:35:46;4.78;;;1.67;;
45342;SDS011;31077;50.872;4.352;2023-02-02T12:43:41;5.53;;;1.48;;
45342;SDS011;31077;50.872;4.352;2023-02-02T12:57:01;5.70;;;1.40;;
45342;SDS011;31077;50.872;4.352;2023-02-02T13:02:32;5.45;;;1.52;;
45342;SDS011;31077;50.872;4.352;2023-02-02T13:07:42;5.18;;;1.70;;
45342;SDS011;31077;50.872;4.352;2023-02-02T13:10:18;3.50;;;1.40;;
45342;SDS011;31077;50.872;4.352;2023-02-02T13:12:52;4.18;;;1.30;;
45342;SDS011;31077;50.872;4.352;2023-02-02T13:15:22;2.42;;;1.40;;
45342;SDS011;31077;50.872;4.352;2023-02-02T13:17:56;4.22;;;1.98;;
45342;SDS011;31077;50.872;4.352;2023-02-02T13:20:44;4.03;;;1.52;;
45342;SDS011;31077;50.872;4.352;2023-02-02T13:23:24;3.40;;;1.13;;
45342;SDS011;31077;50.872;4.352;2023-02-02T13:26:08;5.13;;;1.60;;
45342;SDS011;31077;50.872;4.352;2023-02-02T13:31:44;4.25;;;1.63;;
45342;SDS011;31077;50.872;4.352;2023-02-02T13:34:16;3.35;;;1.35;;
45342;SDS011;31077;50.872;4.352;2023-02-02T13:36:53;2.85;;;1.25;;
45342;SDS011;31077;50.872;4.352;2023-02-02T13:39:32;4.90;;;1.40;;
45342;SDS011;31077;50.872;4.352;2023-02-02T13:42:03;2.92;;;1.50;;
45342;SDS011;31077;50.872;4.352;2023-02-02T13:44:42;3.00;;;1.30;;
45342;SDS011;31077;50.872;4.352;2023-02-02T13:49:51;4.35;;;1.33;;
45342;SDS011;31077;50.872;4.352;2023-02-02T14:03:22;3.30;;;1.70;;
45342;SDS011;31077;50.872;4.352;2023-02-02T14:08:50;3.70;;;1.20;;
45342;SDS011;31077;50.872;4.352;2023-02-02T14:11:31;3.13;;;1.00;;
45342;SDS011;31077;50.872;4.352;2023-02-02T14:14:09;2.22;;;1.27;;
45342;SDS011;31077;50.872;4.352;2023-02-02T14:16:58;2.83;;;1.20;;
45342;SDS011;31077;50.872;4.352;2023-02-02T14:24:48;2.78;;;1.20;;
45342;SDS011;31077;50.872;4.352;2023-02-02T14:34:54;2.38;;;1.15;;
45342;SDS011;31077;50.872;4.352;2023-02-02T14:43:20;2.03;;;0.95;;
45342;SDS011;31077;50.872;4.352;2023-02-02T14:48:42;3.28;;;1.50;;
45342;SDS011;31077;50.872;4.352;2023-02-02T14:51:17;2.85;;;1.20;;
45342;SDS011;31077;50.872;4.352;2023-02-02T14:54:14;1.85;;;1.00;;
45342;SDS011;31077;50.872;4.352;2023-02-02T14:56:49;3.67;;;1.50;;
45342;SDS011;31077;50.872;4.352;2023-02-02T14:59:29;3.47;;;1.48;;
45342;SDS011;31077;50.872;4.352;2023-02-02T15:04:38;3.00;;;1.27;;
45342;SDS011;31077;50.872;4.352;2023-02-02T15:09:48;3.45;;;1.45;;
45342;SDS011;31077;50.872;4.352;2023-02-02T15:12:28;2.75;;;1.45;;
45342;SDS011;31077;50.872;4.352;2023-02-02T15:15:20;1.92;;;1.00;;
45342;SDS011;31077;50.872;4.352;2023-02-02T15:17:53;3.40;;;1.13;;
45342;SDS011;31077;50.872;4.352;2023-02-02T15:20:52;4.43;;;1.50;;
45342;SDS011;31077;50.872;4.352;2023-02-02T15:26:02;3.53;;;1.27;;
45342;SDS011;31077;50.872;4.352;2023-02-02T15:31:35;5.03;;;1.70;;
45342;SDS011;31077;50.872;4.352;2023-02-02T15:34:26;3.17;;;1.23;;
45342;SDS011;31077;50.872;4.352;2023-02-02T15:37:03;3.40;;;1.30;;
45342;SDS011;31077;50.872;4.352;2023-02-02T15:39:51;3.80;;;1.33;;
45342;SDS011;31077;50.872;4.352;2023-02-02T15:42:26;3.50;;;1.48;;
45342;SDS011;31077;50.872;4.352;2023-02-02T15:47:53;2.83;;;1.35;;
45342;SDS011;31077;50.872;4.352;2023-02-02T15:50:20;3.85;;;1.00;;
45342;SDS011;31077;50.872;4.352;2023-02-02T15:52:47;2.40;;;1.13;;
45342;SDS011;31077;50.872;4.352;2023-02-02T15:55:22;5.22;;;1.42;;
45342;SDS011;31077;50.872;4.352;2023-02-02T15:57:59;2.72;;;1.10;;
45342;SDS011;31077;50.872;4.352;2023-02-02T16:03:03;5.03;;;1.65;;
45342;SDS011;31077;50.872;4.352;2023-02-02T16:08:10;3.78;;;1.30;;
45342;SDS011;31077;50.872;4.352;2023-02-02T16:11:17;2.53;;;1.30;;
45342;SDS011;31077;50.872;4.352;2023-02-02T16:13:54;4.20;;;1.42;;
45342;SDS011;31077;50.872;4.352;2023-02-02T16:16:27;2.90;;;1.20;;
45342;SDS011;31077;50.872;4.352;2023-02-02T16:19:01;3.92;;;1.40;;
45342;SDS011;31077;50.872;4.352;2023-02-02T16:21:27;3.47;;;1.25;;
45342;SDS011;31077;50.872;4.352;2023-02-02T16:23:55;3.10;;;1.20;;
45342;SDS011;31077;50.872;4.352;2023-02-02T16:26:23;3.13;;;1.52;;
45342;SDS011;31077;50.872;4.352;2023-02-02T16:28:55;2.40;;;1.13;;
45342;SDS011;31077;50.872;4.352;2023-02-02T16:31:21;2.10;;;1.10;;
45342;SDS011;31077;50.872;4.352;2023-02-02T16:33:48;3.28;;;1.10;;
45342;SDS011;31077;50.872;4.352;2023-02-02T16:36:21;2.75;;;1.27;;
45342;SDS011;31077;50.872;4.352;2023-02-02T16:38:49;2.97;;;1.30;;
45342;SDS011;31077;50.872;4.352;2023-02-02T16:41:29;2.67;;;1.25;;
45342;SDS011;31077;50.872;4.352;2023-02-02T16:47:00;3.00;;;1.17;;
45342;SDS011;31077;50.872;4.352;2023-02-02T16:49:27;1.42;;;1.05;;
45342;SDS011;31077;50.872;4.352;2023-02-02T16:54:54;3.03;;;1.30;;
45342;SDS011;31077;50.872;4.352;2023-02-02T16:57:25;4.22;;;1.45;;
45342;SDS011;31077;50.872;4.352;2023-02-02T16:59:54;5.78;;;1.35;;
45342;SDS011;31077;50.872;4.352;2023-02-02T17:02:29;3.30;;;1.20;;
45342;SDS011;31077;50.872;4.352;2023-02-02T17:05:06;2.63;;;1.20;;
45342;SDS011;31077;50.872;4.352;2023-02-02T17:07:47;1.95;;;1.15;;
45342;SDS011;31077;50.872;4.352;2023-02-02T17:12:41;3.30;;;1.50;;
45342;SDS011;31077;50.872;4.352;2023-02-02T17:17:47;2.77;;;1.47;;
45342;SDS011;31077;50.872;4.352;2023-02-02T17:20:13;2.60;;;1.40;;
45342;SDS011;31077;50.872;4.352;2023-02-02T17:22:41;2.85;;;1.30;;
45342;SDS011;31077;50.872;4.352;2023-02-02T17:25:15;3.30;;;1.40;;
45342;SDS011;31077;50.872;4.352;2023-02-02T17:27:43;2.30;;;1.27;;
45342;SDS011;31077;50.872;4.352;2023-02-02T17:30:13;2.70;;;1.27;;
45342;SDS011;31077;50.872;4.352;2023-02-02T17:32:41;4.22;;;1.40;;
45342;SDS011;31077;50.872;4.352;2023-02-02T17:35:14;5.00;;;1.88;;
45342;SDS011;31077;50.872;4.352;2023-02-02T17:37:41;2.38;;;1.23;;
45342;SDS011;31077;50.872;4.352;2023-02-02T17:40:16;4.22;;;1.45;;
45342;SDS011;31077;50.872;4.352;2023-02-02T17:42:44;3.78;;;1.40;;
45342;SDS011;31077;50.872;4.352;2023-02-02T17:45:19;2.58;;;1.40;;
45342;SDS011;31077;50.872;4.352;2023-02-02T17:47:52;3.75;;;1.50;;
45342;SDS011;31077;50.872;4.352;2023-02-02T17:50:18;2.47;;;1.27;;
45342;SDS011;31077;50.872;4.352;2023-02-02T17:52:45;2.97;;;1.42;;
45342;SDS011;31077;50.872;4.352;2023-02-02T17:55:19;3.63;;;1.48;;
45342;SDS011;31077;50.872;4.352;2023-02-02T17:57:50;2.83;;;1.23;;
45342;SDS011;31077;50.872;4.352;2023-02-02T18:00:17;3.20;;;1.50;;